CYCK

Chatham Kent Airport

Chatham-Kent, Ontario, Canada
METAR CYCK 092100Z AUTO 27005KT 9SM CLR 00/M05 A3025 RMK SLP255
Observed Flight Rules
Dec-9 @ 21:00 UTC (46 minutes ago) Visual Flight Rules
Wind Visibility Clouds
270° at 5 knots 9 miles
  • Clear skies
Temperatures Readings
Current 0°C / 32°F
Dewpoint -5°C / 23°F
Humidity 69%
Altimeter 30.25" Hg
Pressure 1025.5 hPa
Elevation 198
METAR CYCK 092100Z AUTO 27005KT 9SM CLR 00/M05 A3025 RMK SLP255
Observed Flight Rules
Dec-9 @ 21:00 UTC
(46 minutes ago)
VFR
Wind Visibility
270° at 5 knots 9 miles
Clouds
  • Clear skies
Temperature Dewpoint
0°C / 32°F -5°C / 23°F
Humidity Altimeter Pressure
69% 30.25" Hg 1025.5 hPa